Terminal Aerodrome Forecast
Issued by NWS

Home | Current Version | Previous Version | Graphics & Text | Print | Product List | Glossary Off
Versions: 1 2 3 4 5 6 7 8 9 10 11 12 13 14 15 16 17 18 19 20 21 22 23 24 25 26 27 28 29 30 31 32 33 34 35 36 37 38 39 40 41 42 43 44 45 46 47 48 49 50

000
FTUS43 KDDC 270520
TAFGCK
TAF
KGCK 270520Z 2706/2806 33006KT P6SM BKN035 BKN060
     FM271100 32007KT P6SM SCT008
     FM271200 32007KT 1/2SM FG SCT008
     FM271400 32006KT 3/4SM BR SCT008
     FM271600 31005KT 6SM BR FEW100
     FM280000 14009KT P6SM SCT200=

USA.gov is the U.S. government's official web portal to all federal, state and local government web resources and services.